sensor_id;sensor_type;location;lat;lon;timestamp;pressure;altitude;pressure_sealevel;temperature;humidity
18022;BME280;9136;48.822;7.966;2023-02-26T00:02:22;99925.38;;;-0.14;100.00
18022;BME280;9136;48.822;7.966;2023-02-26T00:05:10;99923.66;;;-0.12;98.66
18022;BME280;9136;48.822;7.966;2023-02-26T00:07:58;99905.47;;;-0.30;98.77
18022;BME280;9136;48.822;7.966;2023-02-26T00:10:47;99933.13;;;-0.11;97.43
18022;BME280;9136;48.822;7.966;2023-02-26T00:13:36;99921.06;;;-0.13;98.53
18022;BME280;9136;48.822;7.966;2023-02-26T00:16:27;99925.38;;;-0.18;99.96
18022;BME280;9136;48.822;7.966;2023-02-26T00:19:16;99926.22;;;-0.16;100.00
18022;BME280;9136;48.822;7.966;2023-02-26T00:22:05;99927.03;;;-0.20;100.00
18022;BME280;9136;48.822;7.966;2023-02-26T00:24:53;99903.75;;;-0.31;100.00
18022;BME280;9136;48.822;7.966;2023-02-26T00:27:43;99924.44;;;-0.26;97.96
18022;BME280;9136;48.822;7.966;2023-02-26T00:30:32;99909.78;;;-0.35;100.00
18022;BME280;9136;48.822;7.966;2023-02-26T00:33:20;99922.69;;;-0.32;100.00
18022;BME280;9136;48.822;7.966;2023-02-26T00:36:18;99926.09;;;-0.36;100.00
18022;BME280;9136;48.822;7.966;2023-02-26T00:39:18;99933.00;;;-0.32;97.00
18022;BME280;9136;48.822;7.966;2023-02-26T00:42:10;99931.22;;;-0.39;100.00
18022;BME280;9136;48.822;7.966;2023-02-26T00:45:00;99920.84;;;-0.50;100.00
18022;BME280;9136;48.822;7.966;2023-02-26T00:47:51;99940.69;;;-0.43;98.94
18022;BME280;9136;48.822;7.966;2023-02-26T00:50:45;99919.09;;;-0.54;100.00
18022;BME280;9136;48.822;7.966;2023-02-26T00:53:39;99925.13;;;-0.52;100.00
18022;BME280;9136;48.822;7.966;2023-02-26T00:56:30;99932.06;;;-0.46;100.00
18022;BME280;9136;48.822;7.966;2023-02-26T00:59:19;99933.78;;;-0.44;100.00
18022;BME280;9136;48.822;7.966;2023-02-26T01:02:08;99938.94;;;-0.44;96.11
18022;BME280;9136;48.822;7.966;2023-02-26T01:04:57;99941.53;;;-0.44;100.00
18022;BME280;9136;48.822;7.966;2023-02-26T01:07:51;99933.75;;;-0.48;100.00
18022;BME280;9136;48.822;7.966;2023-02-26T01:10:41;99942.38;;;-0.45;100.00
18022;BME280;9136;48.822;7.966;2023-02-26T01:13:29;99936.31;;;-0.50;99.93
18022;BME280;9136;48.822;7.966;2023-02-26T01:16:20;99944.13;;;-0.42;95.36
18022;BME280;9136;48.822;7.966;2023-02-26T01:19:19;99914.75;;;-0.63;100.00
18022;BME280;9136;48.822;7.966;2023-02-26T01:22:15;99939.75;;;-0.51;99.64
18022;BME280;9136;48.822;7.966;2023-02-26T01:25:08;99934.56;;;-0.55;100.00
18022;BME280;9136;48.822;7.966;2023-02-26T01:27:56;99930.06;;;-0.78;100.00
18022;BME280;9136;48.822;7.966;2023-02-26T01:30:45;99932.63;;;-0.81;100.00
18022;BME280;9136;48.822;7.966;2023-02-26T01:33:39;99949.03;;;-0.76;100.00
18022;BME280;9136;48.822;7.966;2023-02-26T01:36:33;99942.94;;;-0.81;100.00
18022;BME280;9136;48.822;7.966;2023-02-26T01:39:27;99925.69;;;-0.91;100.00
18022;BME280;9136;48.822;7.966;2023-02-26T01:42:21;99944.69;;;-0.80;100.00
18022;BME280;9136;48.822;7.966;2023-02-26T01:45:12;99943.72;;;-0.90;100.00
18022;BME280;9136;48.822;7.966;2023-02-26T01:48:05;99935.88;;;-1.03;100.00
18022;BME280;9136;48.822;7.966;2023-02-26T01:50:53;99935.06;;;-0.99;100.00
18022;BME280;9136;48.822;7.966;2023-02-26T01:53:43;99918.66;;;-1.07;100.00
18022;BME280;9136;48.822;7.966;2023-02-26T01:56:31;99905.75;;;-1.07;100.00
18022;BME280;9136;48.822;7.966;2023-02-26T01:59:19;99932.53;;;-0.92;100.00
18022;BME280;9136;48.822;7.966;2023-02-26T02:02:11;99931.66;;;-0.95;100.00
18022;BME280;9136;48.822;7.966;2023-02-26T02:05:03;99916.94;;;-1.07;100.00
18022;BME280;9136;48.822;7.966;2023-02-26T02:07:54;99918.63;;;-1.10;100.00
18022;BME280;9136;48.822;7.966;2023-02-26T02:10:46;99938.38;;;-1.11;100.00
18022;BME280;9136;48.822;7.966;2023-02-26T02:13:40;99937.41;;;-1.22;100.00
18022;BME280;9136;48.822;7.966;2023-02-26T02:16:40;99924.47;;;-1.28;100.00
18022;BME280;9136;48.822;7.966;2023-02-26T02:19:51;99939.06;;;-1.27;100.00
18022;BME280;9136;48.822;7.966;2023-02-26T02:22:58;99931.19;;;-1.42;100.00
18022;BME280;9136;48.822;7.966;2023-02-26T02:29:40;99963.84;;;-1.40;100.00
18022;BME280;9136;48.822;7.966;2023-02-26T02:32:38;99963.84;;;-1.40;100.00
18022;BME280;9136;48.822;7.966;2023-02-26T02:35:33;99972.34;;;-1.47;100.00
18022;BME280;9136;48.822;7.966;2023-02-26T02:38:30;99963.59;;;-1.61;100.00
18022;BME280;9136;48.822;7.966;2023-02-26T02:41:23;99971.47;;;-1.49;100.00
18022;BME280;9136;48.822;7.966;2023-02-26T02:44:15;99972.41;;;-1.44;100.00
18022;BME280;9136;48.822;7.966;2023-02-26T02:47:05;99975.00;;;-1.42;100.00
18022;BME280;9136;48.822;7.966;2023-02-26T02:50:01;99956.00;;;-1.51;100.00
18022;BME280;9136;48.822;7.966;2023-02-26T02:52:56;99971.59;;;-1.37;100.00
18022;BME280;9136;48.822;7.966;2023-02-26T02:55:49;99948.28;;;-1.49;100.00
18022;BME280;9136;48.822;7.966;2023-02-26T02:58:42;99986.00;;;-1.54;100.00
18022;BME280;9136;48.822;7.966;2023-02-26T03:01:32;99961.06;;;-1.58;100.00
18022;BME280;9136;48.822;7.966;2023-02-26T03:04:21;99947.22;;;-1.66;100.00
18022;BME280;9136;48.822;7.966;2023-02-26T03:07:11;99972.31;;;-1.50;100.00
18022;BME280;9136;48.822;7.966;2023-02-26T03:09:59;99974.88;;;-1.52;100.00
18022;BME280;9136;48.822;7.966;2023-02-26T03:12:47;99981.00;;;-1.40;100.00
18022;BME280;9136;48.822;7.966;2023-02-26T03:15:38;99976.72;;;-1.40;100.00
18022;BME280;9136;48.822;7.966;2023-02-26T03:18:40;99984.38;;;-1.46;100.00
18022;BME280;9136;48.822;7.966;2023-02-26T03:21:41;99986.78;;;-1.60;100.00
18022;BME280;9136;48.822;7.966;2023-02-26T03:24:36;99967.78;;;-1.71;100.00
18022;BME280;9136;48.822;7.966;2023-02-26T03:27:27;99991.94;;;-1.61;100.00
18022;BME280;9136;48.822;7.966;2023-02-26T03:30:20;99980.66;;;-1.71;100.00
18022;BME280;9136;48.822;7.966;2023-02-26T03:33:13;99986.50;;;-1.83;100.00
18022;BME280;9136;48.822;7.966;2023-02-26T03:36:06;99972.59;;;-1.95;100.00
18022;BME280;9136;48.822;7.966;2023-02-26T03:38:59;99998.34;;;-1.94;100.00
18022;BME280;9136;48.822;7.966;2023-02-26T03:41:55;99990.50;;;-2.03;100.00
18022;BME280;9136;48.822;7.966;2023-02-26T03:44:48;100000.06;;;-1.94;100.00
18022;BME280;9136;48.822;7.966;2023-02-26T03:47:40;99987.03;;;-2.05;100.00
18022;BME280;9136;48.822;7.966;2023-02-26T03:50:33;99985.38;;;-2.02;100.00
18022;BME280;9136;48.822;7.966;2023-02-26T03:53:24;99996.69;;;-1.90;100.00
18022;BME280;9136;48.822;7.966;2023-02-26T03:56:16;99994.03;;;-1.96;100.00
18022;BME280;9136;48.822;7.966;2023-02-26T03:59:07;99976.81;;;-2.02;100.00
18022;BME280;9136;48.822;7.966;2023-02-26T04:01:58;99982.09;;;-1.91;100.00
18022;BME280;9136;48.822;7.966;2023-02-26T04:04:50;99996.81;;;-1.83;100.00
18022;BME280;9136;48.822;7.966;2023-02-26T04:07:40;100001.97;;;-1.81;100.00
18022;BME280;9136;48.822;7.966;2023-02-26T04:10:37;99998.41;;;-1.89;100.00
18022;BME280;9136;48.822;7.966;2023-02-26T04:13:27;100001.88;;;-1.86;100.00
18022;BME280;9136;48.822;7.966;2023-02-26T04:16:17;100001.81;;;-1.92;100.00
18022;BME280;9136;48.822;7.966;2023-02-26T04:19:05;100000.13;;;-1.90;100.00
18022;BME280;9136;48.822;7.966;2023-02-26T04:21:53;100026.88;;;-1.79;100.00
18022;BME280;9136;48.822;7.966;2023-02-26T04:24:41;99996.69;;;-1.90;100.00
18022;BME280;9136;48.822;7.966;2023-02-26T04:27:28;100019.09;;;-1.83;100.00
18022;BME280;9136;48.822;7.966;2023-02-26T04:30:17;100006.13;;;-1.91;100.00
18022;BME280;9136;48.822;7.966;2023-02-26T04:33:07;100013.84;;;-1.92;100.00
18022;BME280;9136;48.822;7.966;2023-02-26T04:35:54;100022.44;;;-1.89;100.00
18022;BME280;9136;48.822;7.966;2023-02-26T04:38:42;100011.03;;;-2.08;100.00
18022;BME280;9136;48.822;7.966;2023-02-26T04:41:30;100020.56;;;-2.02;100.00
18022;BME280;9136;48.822;7.966;2023-02-26T04:44:18;100023.06;;;-2.05;100.00
18022;BME280;9136;48.822;7.966;2023-02-26T04:47:06;100035.94;;;-2.04;100.00
18022;BME280;9136;48.822;7.966;2023-02-26T04:49:55;100026.47;;;-2.06;100.00
18022;BME280;9136;48.822;7.966;2023-02-26T04:52:43;100013.56;;;-2.09;100.00
18022;BME280;9136;48.822;7.966;2023-02-26T04:55:31;100030.06;;;-1.95;100.00
18022;BME280;9136;48.822;7.966;2023-02-26T04:58:19;100031.72;;;-2.00;100.00
18022;BME280;9136;48.822;7.966;2023-02-26T05:01:08;100042.19;;;-1.89;100.00
18022;BME280;9136;48.822;7.966;2023-02-26T05:03:56;100029.06;;;-2.05;100.00
18022;BME280;9136;48.822;7.966;2023-02-26T05:06:45;100040.31;;;-2.01;100.00
18022;BME280;9136;48.822;7.966;2023-02-26T05:09:33;100045.44;;;-2.03;100.00
18022;BME280;9136;48.822;7.966;2023-02-26T05:12:20;100048.75;;;-2.08;100.00
18022;BME280;9136;48.822;7.966;2023-02-26T05:15:09;100053.16;;;-2.03;100.00
18022;BME280;9136;48.822;7.966;2023-02-26T05:17:56;100036.84;;;-2.02;100.00
18022;BME280;9136;48.822;7.966;2023-02-26T05:20:44;100044.66;;;-1.94;100.00
18022;BME280;9136;48.822;7.966;2023-02-26T05:23:33;100049.81;;;-1.94;100.00
18022;BME280;9136;48.822;7.966;2023-02-26T05:26:22;100065.34;;;-1.91;100.00
18022;BME280;9136;48.822;7.966;2023-02-26T05:29:09;100052.38;;;-1.95;100.00
18022;BME280;9136;48.822;7.966;2023-02-26T05:31:58;100056.72;;;-1.93;100.00
18022;BME280;9136;48.822;7.966;2023-02-26T05:34:45;100054.16;;;-1.93;100.00
18022;BME280;9136;48.822;7.966;2023-02-26T05:37:33;100065.38;;;-1.86;100.00
18022;BME280;9136;48.822;7.966;2023-02-26T05:40:23;100056.66;;;-1.96;100.00
18022;BME280;9136;48.822;7.966;2023-02-26T05:43:11;100059.47;;;-1.81;100.00
18022;BME280;9136;48.822;7.966;2023-02-26T05:45:58;100076.78;;;-1.72;100.00
18022;BME280;9136;48.822;7.966;2023-02-26T05:48:46;100067.25;;;-1.76;100.00
18022;BME280;9136;48.822;7.966;2023-02-26T05:51:34;100075.09;;;-1.68;100.00
18022;BME280;9136;48.822;7.966;2023-02-26T05:54:22;100086.09;;;-1.79;100.00
18022;BME280;9136;48.822;7.966;2023-02-26T05:57:12;100093.22;;;-1.61;100.00
18022;BME280;9136;48.822;7.966;2023-02-26T06:00:00;100077.75;;;-1.64;100.00
18022;BME280;9136;48.822;7.966;2023-02-26T06:02:49;100087.94;;;-1.70;100.00
18022;BME280;9136;48.822;7.966;2023-02-26T06:05:37;100098.44;;;-1.56;100.00
18022;BME280;9136;48.822;7.966;2023-02-26T06:08:25;100093.19;;;-1.64;100.00
18022;BME280;9136;48.822;7.966;2023-02-26T06:11:13;100095.81;;;-1.61;100.00
18022;BME280;9136;48.822;7.966;2023-02-26T06:14:03;100113.09;;;-1.52;100.00
18022;BME280;9136;48.822;7.966;2023-02-26T06:16:50;100115.88;;;-1.38;100.00
18022;BME280;9136;48.822;7.966;2023-02-26T06:19:39;100111.53;;;-1.41;100.00
18022;BME280;9136;48.822;7.966;2023-02-26T06:22:27;100131.34;;;-1.35;100.00
18022;BME280;9136;48.822;7.966;2023-02-26T06:25:15;100121.97;;;-1.32;100.00
18022;BME280;9136;48.822;7.966;2023-02-26T06:28:03;100140.03;;;-1.30;100.00
18022;BME280;9136;48.822;7.966;2023-02-26T06:30:53;100141.84;;;-1.25;100.00
18022;BME280;9136;48.822;7.966;2023-02-26T06:33:40;100131.44;;;-1.29;100.00
18022;BME280;9136;48.822;7.966;2023-02-26T06:36:28;100147.88;;;-1.23;100.00
18022;BME280;9136;48.822;7.966;2023-02-26T06:39:16;100137.53;;;-1.24;100.00
18022;BME280;9136;48.822;7.966;2023-02-26T06:42:04;100152.19;;;-1.22;100.00
18022;BME280;9136;48.822;7.966;2023-02-26T06:44:52;100157.25;;;-1.26;100.00
18022;BME280;9136;48.822;7.966;2023-02-26T06:47:41;100154.75;;;-1.22;100.00
18022;BME280;9136;48.822;7.966;2023-02-26T06:50:29;100153.03;;;-1.21;100.00
18022;BME280;9136;48.822;7.966;2023-02-26T06:53:17;100172.06;;;-1.11;100.00
18022;BME280;9136;48.822;7.966;2023-02-26T06:56:05;100173.84;;;-1.07;100.00
18022;BME280;9136;48.822;7.966;2023-02-26T06:58:53;100158.13;;;-1.26;100.00
18022;BME280;9136;48.822;7.966;2023-02-26T07:01:41;100178.97;;;-1.07;100.00
18022;BME280;9136;48.822;7.966;2023-02-26T07:04:30;100189.41;;;-0.98;100.00
18022;BME280;9136;48.822;7.966;2023-02-26T07:07:18;100181.78;;;-0.94;100.00
18022;BME280;9136;48.822;7.966;2023-02-26T07:10:07;100183.47;;;-0.96;100.00
18022;BME280;9136;48.822;7.966;2023-02-26T07:12:55;100199.88;;;-0.88;100.00
18022;BME280;9136;48.822;7.966;2023-02-26T07:15:52;100195.53;;;-0.93;100.00
18022;BME280;9136;48.822;7.966;2023-02-26T07:18:40;100198.94;;;-0.96;100.00
18022;BME280;9136;48.822;7.966;2023-02-26T07:21:29;100208.44;;;-0.90;100.00
18022;BME280;9136;48.822;7.966;2023-02-26T07:24:17;100211.97;;;-0.85;100.00
18022;BME280;9136;48.822;7.966;2023-02-26T07:27:05;100216.38;;;-0.76;100.00
18022;BME280;9136;48.822;7.966;2023-02-26T07:29:53;100222.56;;;-0.62;100.00
18022;BME280;9136;48.822;7.966;2023-02-26T07:32:41;100214.06;;;-0.55;100.00
18022;BME280;9136;48.822;7.966;2023-02-26T07:35:29;100215.03;;;-0.47;100.00
18022;BME280;9136;48.822;7.966;2023-02-26T07:38:19;100239.13;;;-0.45;100.00
18022;BME280;9136;48.822;7.966;2023-02-26T07:41:06;100216.56;;;-0.61;100.00
18022;BME280;9136;48.822;7.966;2023-02-26T07:43:55;100239.03;;;-0.51;100.00
18022;BME280;9136;48.822;7.966;2023-02-26T07:46:42;100235.66;;;-0.47;100.00
18022;BME280;9136;48.822;7.966;2023-02-26T07:49:30;100234.72;;;-0.52;100.00
18022;BME280;9136;48.822;7.966;2023-02-26T07:52:19;100241.69;;;-0.46;100.00
18022;BME280;9136;48.822;7.966;2023-02-26T07:55:09;100242.69;;;-0.34;100.00
18022;BME280;9136;48.822;7.966;2023-02-26T07:57:57;100254.03;;;-0.19;100.00
18022;BME280;9136;48.822;7.966;2023-02-26T08:00:45;100243.88;;;-0.03;100.00
18022;BME280;9136;48.822;7.966;2023-02-26T08:03:33;100262.16;;;0.17;100.00
18022;BME280;9136;48.822;7.966;2023-02-26T08:06:21;100264.06;;;0.34;100.00
18022;BME280;9136;48.822;7.966;2023-02-26T08:09:09;100261.47;;;0.35;100.00
18022;BME280;9136;48.822;7.966;2023-02-26T08:11:58;100249.22;;;0.13;100.00
18022;BME280;9136;48.822;7.966;2023-02-26T08:14:46;100255.44;;;0.30;100.00
18022;BME280;9136;48.822;7.966;2023-02-26T08:17:34;100249.72;;;0.68;100.00
18022;BME280;9136;48.822;7.966;2023-02-26T08:20:22;100258.50;;;0.90;100.00
18022;BME280;9136;48.822;7.966;2023-02-26T08:23:10;100268.06;;;1.04;100.00
18022;BME280;9136;48.822;7.966;2023-02-26T08:26:01;100255.19;;;1.13;100.00
18022;BME280;9136;48.822;7.966;2023-02-26T08:28:51;100243.97;;;1.07;100.00
18022;BME280;9136;48.822;7.966;2023-02-26T08:31:39;100259.50;;;1.14;100.00
18022;BME280;9136;48.822;7.966;2023-02-26T08:34:27;100244.03;;;1.19;100.00
18022;BME280;9136;48.822;7.966;2023-02-26T08:37:15;100244.06;;;1.28;100.00
18022;BME280;9136;48.822;7.966;2023-02-26T08:40:03;100257.97;;;1.49;100.00
18022;BME280;9136;48.822;7.966;2023-02-26T08:42:52;100241.53;;;1.40;100.00
18022;BME280;9136;48.822;7.966;2023-02-26T08:45:41;100248.22;;;1.03;100.00
18022;BME280;9136;48.822;7.966;2023-02-26T08:48:29;100246.50;;;1.01;100.00
18022;BME280;9136;48.822;7.966;2023-02-26T08:51:17;100244.69;;;0.91;100.00
18022;BME280;9136;48.822;7.966;2023-02-26T08:54:05;100228.19;;;0.72;100.00
18022;BME280;9136;48.822;7.966;2023-02-26T08:56:56;100236.84;;;0.77;100.00
18022;BME280;9136;48.822;7.966;2023-02-26T08:59:44;100231.63;;;0.68;100.00
18022;BME280;9136;48.822;7.966;2023-02-26T09:02:33;100264.53;;;0.92;100.00
18022;BME280;9136;48.822;7.966;2023-02-26T09:05:21;100276.66;;;1.00;100.00
18022;BME280;9136;48.822;7.966;2023-02-26T09:08:09;100258.47;;;0.88;100.00
18022;BME280;9136;48.822;7.966;2023-02-26T09:11:00;100272.38;;;1.04;100.00
18022;BME280;9136;48.822;7.966;2023-02-26T09:13:48;100277.47;;;0.93;100.00
18022;BME280;9136;48.822;7.966;2023-02-26T09:16:37;100277.47;;;0.92;100.00
18022;BME280;9136;48.822;7.966;2023-02-26T09:19:26;100278.44;;;1.07;100.00
18022;BME280;9136;48.822;7.966;2023-02-26T09:22:14;100278.59;;;1.32;100.00
18022;BME280;9136;48.822;7.966;2023-02-26T09:25:03;100287.19;;;1.28;100.00
18022;BME280;9136;48.822;7.966;2023-02-26T09:27:51;100304.66;;;1.73;100.00
18022;BME280;9136;48.822;7.966;2023-02-26T09:30:39;100313.41;;;1.99;100.00
18022;BME280;9136;48.822;7.966;2023-02-26T09:33:27;100303.00;;;1.87;100.00
18022;BME280;9136;48.822;7.966;2023-02-26T09:36:16;100296.97;;;1.84;100.00
18022;BME280;9136;48.822;7.966;2023-02-26T09:39:05;100303.84;;;1.79;100.00
18022;BME280;9136;48.822;7.966;2023-02-26T09:41:57;100297.75;;;1.73;100.00
18022;BME280;9136;48.822;7.966;2023-02-26T09:44:47;100288.31;;;1.80;100.00
18022;BME280;9136;48.822;7.966;2023-02-26T09:47:41;100312.44;;;1.68;100.00
18022;BME280;9136;48.822;7.966;2023-02-26T09:50:38;100318.31;;;1.41;100.00
18022;BME280;9136;48.822;7.966;2023-02-26T09:53:31;100309.69;;;1.39;100.00
18022;BME280;9136;48.822;7.966;2023-02-26T09:56:23;100296.75;;;1.44;100.00
18022;BME280;9136;48.822;7.966;2023-02-26T09:59:12;100302.94;;;1.69;100.00
18022;BME280;9136;48.822;7.966;2023-02-26T10:02:03;100299.44;;;1.58;100.00
18022;BME280;9136;48.822;7.966;2023-02-26T10:04:59;100306.28;;;1.50;100.00
18022;BME280;9136;48.822;7.966;2023-02-26T10:07:56;100310.66;;;1.63;100.00
18022;BME280;9136;48.822;7.966;2023-02-26T10:11:02;100317.66;;;1.76;100.00
18022;BME280;9136;48.822;7.966;2023-02-26T10:13:52;100302.13;;;1.75;100.00
18022;BME280;9136;48.822;7.966;2023-02-26T10:16:48;100308.97;;;1.68;100.00
18022;BME280;9136;48.822;7.966;2023-02-26T10:19:42;100328.78;;;1.57;100.00
18022;BME280;9136;48.822;7.966;2023-02-26T10:22:34;100306.34;;;1.60;99.26
18022;BME280;9136;48.822;7.966;2023-02-26T10:25:27;100322.06;;;1.94;98.23
18022;BME280;9136;48.822;7.966;2023-02-26T10:28:34;100321.28;;;2.30;95.90
18022;BME280;9136;48.822;7.966;2023-02-26T10:31:30;100323.91;;;2.36;92.63
18022;BME280;9136;48.822;7.966;2023-02-26T10:34:25;100305.66;;;1.98;90.35
18022;BME280;9136;48.822;7.966;2023-02-26T10:37:18;100337.63;;;2.08;92.12
18022;BME280;9136;48.822;7.966;2023-02-26T10:40:12;100329.97;;;2.46;90.95
18022;BME280;9136;48.822;7.966;2023-02-26T10:43:09;100337.78;;;2.87;84.23
18022;BME280;9136;48.822;7.966;2023-02-26T10:46:11;100324.78;;;3.17;82.56
18022;BME280;9136;48.822;7.966;2023-02-26T10:49:32;100332.59;;;3.19;78.11
18022;BME280;9136;48.822;7.966;2023-02-26T10:52:24;100331.69;;;2.59;81.17
18022;BME280;9136;48.822;7.966;2023-02-26T10:55:36;100337.72;;;2.40;89.23
18022;BME280;9136;48.822;7.966;2023-02-26T10:58:25;100348.03;;;2.20;91.09
18022;BME280;9136;48.822;7.966;2023-02-26T11:01:17;100355.81;;;2.17;93.18
18022;BME280;9136;48.822;7.966;2023-02-26T11:04:07;100325.53;;;2.07;90.96
18022;BME280;9136;48.822;7.966;2023-02-26T11:06:58;100328.13;;;2.05;91.50
18022;BME280;9136;48.822;7.966;2023-02-26T11:09:47;100335.94;;;2.13;90.95
18022;BME280;9136;48.822;7.966;2023-02-26T11:12:35;100343.63;;;1.99;90.73
18022;BME280;9136;48.822;7.966;2023-02-26T11:15:25;100347.97;;;2.00;90.58
18022;BME280;9136;48.822;7.966;2023-02-26T11:18:19;100356.59;;;1.99;90.89
18022;BME280;9136;48.822;7.966;2023-02-26T11:21:16;100355.72;;;1.98;89.83
18022;BME280;9136;48.822;7.966;2023-02-26T11:24:08;100354.03;;;2.07;90.14
18022;BME280;9136;48.822;7.966;2023-02-26T11:26:59;100359.22;;;2.11;88.46
18022;BME280;9136;48.822;7.966;2023-02-26T11:29:54;100360.09;;;2.06;89.35
18022;BME280;9136;48.822;7.966;2023-02-26T11:32:43;100364.41;;;2.05;88.61
18022;BME280;9136;48.822;7.966;2023-02-26T11:35:33;100363.47;;;1.91;90.97
18022;BME280;9136;48.822;7.966;2023-02-26T11:38:24;100373.78;;;1.83;90.20
18022;BME280;9136;48.822;7.966;2023-02-26T11:41:13;100382.44;;;1.87;92.90
18022;BME280;9136;48.822;7.966;2023-02-26T11:44:03;100372.94;;;1.87;88.89
18022;BME280;9136;48.822;7.966;2023-02-26T11:46:53;100387.75;;;2.13;91.36
18022;BME280;9136;48.822;7.966;2023-02-26T11:49:43;100381.75;;;2.24;91.30
18022;BME280;9136;48.822;7.966;2023-02-26T11:52:35;100374.84;;;2.23;88.15
18022;BME280;9136;48.822;7.966;2023-02-26T11:55:28;100369.63;;;2.17;81.90
18022;BME280;9136;48.822;7.966;2023-02-26T11:58:20;100348.84;;;2.05;84.09
18022;BME280;9136;48.822;7.966;2023-02-26T12:01:11;100370.56;;;2.38;81.01
18022;BME280;9136;48.822;7.966;2023-02-26T12:04:00;100377.56;;;2.78;79.90
18022;BME280;9136;48.822;7.966;2023-02-26T12:06:50;100385.38;;;2.95;77.64
18022;BME280;9136;48.822;7.966;2023-02-26T12:09:40;100353.38;;;2.93;72.90
18022;BME280;9136;48.822;7.966;2023-02-26T12:12:43;100363.72;;;2.79;75.84
18022;BME280;9136;48.822;7.966;2023-02-26T12:15:41;100362.00;;;3.04;73.67
18022;BME280;9136;48.822;7.966;2023-02-26T12:18:47;100359.38;;;2.69;75.19
18022;BME280;9136;48.822;7.966;2023-02-26T12:21:55;100356.78;;;2.54;80.58
18022;BME280;9136;48.822;7.966;2023-02-26T12:25:05;100348.97;;;2.45;79.34
18022;BME280;9136;48.822;7.966;2023-02-26T12:31:47;100364.47;;;2.28;82.04
18022;BME280;9136;48.822;7.966;2023-02-26T12:35:09;100379.22;;;2.44;80.53
18022;BME280;9136;48.822;7.966;2023-02-26T12:38:09;100345.47;;;2.29;83.08
18022;BME280;9136;48.822;7.966;2023-02-26T12:41:26;100367.16;;;2.57;82.32
18022;BME280;9136;48.822;7.966;2023-02-26T12:44:30;100351.59;;;2.60;79.55
18022;BME280;9136;48.822;7.966;2023-02-26T12:47:34;100355.94;;;2.73;76.91
18022;BME280;9136;48.822;7.966;2023-02-26T12:50:33;100370.66;;;2.96;79.19
18022;BME280;9136;48.822;7.966;2023-02-26T12:53:44;100359.44;;;2.91;76.10
18022;BME280;9136;48.822;7.966;2023-02-26T12:56:59;100372.38;;;2.77;78.60
18022;BME280;9136;48.822;7.966;2023-02-26T13:00:09;100368.91;;;2.75;78.85
18022;BME280;9136;48.822;7.966;2023-02-26T13:03:24;100381.88;;;2.79;75.02
18022;BME280;9136;48.822;7.966;2023-02-26T13:09:49;100381.88;;;2.85;82.14
18022;BME280;9136;48.822;7.966;2023-02-26T13:12:47;100367.19;;;2.75;80.74
18022;BME280;9136;48.822;7.966;2023-02-26T13:15:56;100395.69;;;2.63;81.22
18022;BME280;9136;48.822;7.966;2023-02-26T13:18:50;100367.13;;;2.42;87.62
18022;BME280;9136;48.822;7.966;2023-02-26T13:21:43;100375.72;;;2.30;89.32
18022;BME280;9136;48.822;7.966;2023-02-26T13:24:35;100378.34;;;2.36;96.49
18022;BME280;9136;48.822;7.966;2023-02-26T13:27:28;100373.19;;;2.45;92.33
18022;BME280;9136;48.822;7.966;2023-02-26T13:30:24;100383.59;;;2.65;92.04
18022;BME280;9136;48.822;7.966;2023-02-26T13:33:16;100387.09;;;2.93;85.23
18022;BME280;9136;48.822;7.966;2023-02-26T13:36:06;100369.78;;;3.07;84.99
18022;BME280;9136;48.822;7.966;2023-02-26T13:39:06;100358.53;;;2.96;77.45
18022;BME280;9136;48.822;7.966;2023-02-26T13:42:04;100377.56;;;2.98;79.69
18022;BME280;9136;48.822;7.966;2023-02-26T13:45:05;100371.53;;;3.19;76.23
18022;BME280;9136;48.822;7.966;2023-02-26T13:48:08;100351.59;;;3.44;75.06
18022;BME280;9136;48.822;7.966;2023-02-26T13:51:05;100340.38;;;3.24;69.28
18022;BME280;9136;48.822;7.966;2023-02-26T13:53:58;100345.59;;;3.28;72.96
18022;BME280;9136;48.822;7.966;2023-02-26T13:56:53;100362.81;;;3.63;72.33
18022;BME280;9136;48.822;7.966;2023-02-26T13:59:49;100363.66;;;3.74;70.16
18022;BME280;9136;48.822;7.966;2023-02-26T14:02:48;100353.34;;;3.40;66.96
18022;BME280;9136;48.822;7.966;2023-02-26T14:09:29;100370.25;;;4.53;63.05
18022;BME280;9136;48.822;7.966;2023-02-26T14:12:34;100371.19;;;5.55;58.01
18022;BME280;9136;48.822;7.966;2023-02-26T14:15:30;100378.69;;;4.88;56.27
18022;BME280;9136;48.822;7.966;2023-02-26T14:18:34;100363.44;;;4.29;59.74
18022;BME280;9136;48.822;7.966;2023-02-26T14:21:34;100380.84;;;4.13;60.76
18022;BME280;9136;48.822;7.966;2023-02-26T14:24:31;100392.22;;;3.79;61.43
18022;BME280;9136;48.822;7.966;2023-02-26T14:27:33;100389.69;;;3.43;62.67
18022;BME280;9136;48.822;7.966;2023-02-26T14:30:28;100379.31;;;3.17;63.39
18022;BME280;9136;48.822;7.966;2023-02-26T14:33:18;100387.97;;;3.12;64.39
18022;BME280;9136;48.822;7.966;2023-02-26T14:36:15;100396.59;;;3.17;64.14
18022;BME280;9136;48.822;7.966;2023-02-26T14:39:05;100404.44;;;3.29;62.98
18022;BME280;9136;48.822;7.966;2023-02-26T14:42:00;100384.50;;;3.17;62.23
18022;BME280;9136;48.822;7.966;2023-02-26T14:44:53;100381.06;;;3.00;60.79
18022;BME280;9136;48.822;7.966;2023-02-26T14:47:46;100391.44;;;3.02;63.26
18022;BME280;9136;48.822;7.966;2023-02-26T14:50:44;100405.25;;;2.95;63.47
18022;BME280;9136;48.822;7.966;2023-02-26T14:53:58;100404.38;;;2.86;64.56
18022;BME280;9136;48.822;7.966;2023-02-26T14:56:56;100423.44;;;2.92;62.91
18022;BME280;9136;48.822;7.966;2023-02-26T15:00:00;100407.84;;;2.82;60.51
18022;BME280;9136;48.822;7.966;2023-02-26T15:03:11;100409.56;;;2.85;60.63
18022;BME280;9136;48.822;7.966;2023-02-26T15:06:22;100421.69;;;2.98;58.72
18022;BME280;9136;48.822;7.966;2023-02-26T15:09:17;100408.72;;;3.03;58.69
18022;BME280;9136;48.822;7.966;2023-02-26T15:12:19;100402.66;;;2.98;58.16
18022;BME280;9136;48.822;7.966;2023-02-26T15:15:30;100394.03;;;3.02;58.21
18022;BME280;9136;48.822;7.966;2023-02-26T15:18:37;100412.19;;;3.08;58.67
18022;BME280;9136;48.822;7.966;2023-02-26T15:21:38;100418.25;;;3.16;57.79
18022;BME280;9136;48.822;7.966;2023-02-26T15:24:30;100428.63;;;3.11;58.16
18022;BME280;9136;48.822;7.966;2023-02-26T15:27:19;100444.19;;;3.16;57.96
18022;BME280;9136;48.822;7.966;2023-02-26T15:30:13;100439.88;;;3.18;58.25
18022;BME280;9136;48.822;7.966;2023-02-26T15:33:11;100433.84;;;3.22;58.38